createdAt,value
2019-01-02T00:01:29.782Z,102403.91
2019-01-02T00:04:01.250Z,102413.50
2019-01-02T00:06:32.401Z,102415.24
2019-01-02T00:09:04.661Z,102410.91
2019-01-02T00:11:36.014Z,102417.88
2019-01-02T00:14:07.353Z,102420.02
2019-01-02T00:16:38.592Z,102409.55
2019-01-02T00:19:09.826Z,102412.13
2019-01-02T00:21:41.194Z,102414.77
2019-01-02T00:24:12.486Z,102414.81
2019-01-02T00:26:43.997Z,102416.99
2019-01-02T00:29:15.296Z,102419.61
2019-01-02T00:31:46.747Z,102425.28
2019-01-02T00:34:18.593Z,102419.58
2019-01-02T00:36:49.849Z,102416.53
2019-01-02T00:39:21.286Z,102426.61
2019-01-02T00:41:52.571Z,102423.09
2019-01-02T00:44:24.173Z,102432.67
2019-01-02T00:46:55.477Z,102424.86
2019-01-02T00:49:26.995Z,102426.63
2019-01-02T00:51:58.242Z,102424.02
2019-01-02T00:54:29.454Z,102425.32
2019-01-02T00:57:00.732Z,102427.48
2019-01-02T00:59:31.926Z,102412.69
2019-01-02T01:02:03.215Z,102425.78
2019-01-02T01:04:34.404Z,102421.42
2019-01-02T01:07:05.678Z,102425.39
2019-01-02T01:09:36.881Z,102427.11
2019-01-02T01:12:08.141Z,102428.05
2019-01-02T01:14:39.287Z,102426.24
2019-01-02T01:17:10.473Z,102420.57
2019-01-02T01:19:41.799Z,102421.44
2019-01-02T01:22:13.151Z,102421.05
2019-01-02T01:24:44.378Z,102420.59
2019-01-02T01:27:16.096Z,102428.42
2019-01-02T01:29:49.295Z,102428.38
2019-01-02T01:32:22.334Z,102436.25
2019-01-02T01:34:57.228Z,102440.19
2019-01-02T01:37:28.687Z,102437.59
2019-01-02T01:39:59.922Z,102441.05
2019-01-02T01:42:31.576Z,102440.55
2019-01-02T01:45:02.820Z,102454.91
2019-01-02T01:47:34.116Z,102442.64
2019-01-02T01:50:06.137Z,102442.98
2019-01-02T01:52:37.406Z,102449.12
2019-01-02T01:55:08.787Z,102450.06
2019-01-02T01:57:40.477Z,102459.73
2019-01-02T02:00:16.390Z,102452.31
2019-01-02T02:02:47.664Z,102456.23
2019-01-02T02:05:19.139Z,102457.97
2019-01-02T02:07:50.407Z,102465.00
2019-01-02T02:10:22.030Z,102468.07
2019-01-02T02:12:53.284Z,102477.63
2019-01-02T02:15:24.527Z,102475.46
2019-01-02T02:17:56.250Z,102480.18
2019-01-02T02:20:27.481Z,102480.59
2019-01-02T02:22:58.719Z,102481.95
2019-01-02T02:25:30.349Z,102481.14
2019-01-02T02:28:01.621Z,102489.05
2019-01-02T02:30:32.857Z,102482.47
2019-01-02T02:33:04.066Z,102487.67
2019-01-02T02:35:35.240Z,102486.84
2019-01-02T02:38:06.707Z,102494.27
2019-01-02T02:40:37.969Z,102493.00
2019-01-02T02:43:09.220Z,102489.50
2019-01-02T02:45:40.519Z,102477.19
2019-01-02T02:48:12.329Z,102484.13
2019-01-02T02:50:44.001Z,102493.20
2019-01-02T02:53:15.650Z,102493.67
2019-01-02T02:55:47.773Z,102494.14
2019-01-02T02:58:19.204Z,102497.16
2019-01-02T03:00:50.784Z,102492.36
2019-01-02T03:03:22.329Z,102484.94
2019-01-02T03:05:53.613Z,102481.42
2019-01-02T03:08:24.860Z,102489.30
2019-01-02T03:10:56.528Z,102491.95
2019-01-02T03:13:28.126Z,102492.83
2019-01-02T03:15:59.838Z,102488.45
2019-01-02T03:18:31.355Z,102495.81
2019-01-02T03:21:03.028Z,102494.02
2019-01-02T03:23:34.275Z,102504.30
2019-01-02T03:26:05.471Z,102498.61
2019-01-02T03:28:37.096Z,102490.77
2019-01-02T03:31:08.686Z,102501.20
2019-01-02T03:33:40.221Z,102498.17
2019-01-02T03:36:11.489Z,102503.02
2019-01-02T03:38:42.616Z,102492.90
2019-01-02T03:41:13.876Z,102495.23
2019-01-02T03:43:45.094Z,102492.59
2019-01-02T03:46:16.363Z,102487.35
2019-01-02T03:48:47.573Z,102501.72
2019-01-02T03:51:18.840Z,102503.53
2019-01-02T03:53:50.085Z,102503.54
2019-01-02T03:56:21.382Z,102504.45
2019-01-02T03:58:52.591Z,102500.58
2019-01-02T04:01:23.825Z,102501.03
2019-01-02T04:03:54.966Z,102510.20
2019-01-02T04:06:26.220Z,102499.78
2019-01-02T04:08:57.431Z,102497.58
2019-01-02T04:11:28.678Z,102496.70
2019-01-02T04:13:59.916Z,102500.21
2019-01-02T04:16:31.012Z,102499.38
2019-01-02T04:19:02.193Z,102512.98
2019-01-02T04:21:33.395Z,102507.76
2019-01-02T04:24:04.641Z,102513.92
2019-01-02T04:26:35.896Z,102507.00
2019-01-02T04:29:07.146Z,102499.16
2019-01-02T04:31:38.368Z,102498.73
2019-01-02T04:34:10.714Z,102494.39
2019-01-02T04:36:41.933Z,102498.33
2019-01-02T04:39:13.171Z,102499.16
2019-01-02T04:41:44.391Z,102504.00
2019-01-02T04:44:15.647Z,102502.22
2019-01-02T04:46:46.818Z,102506.99
2019-01-02T04:49:18.083Z,102502.67
2019-01-02T04:51:49.204Z,102505.68
2019-01-02T04:54:39.420Z,102506.12
2019-01-02T04:57:10.625Z,102509.57
2019-01-02T04:59:41.783Z,102516.63
2019-01-02T05:02:12.982Z,102514.86
2019-01-02T05:04:44.281Z,102521.02
2019-01-02T05:07:15.492Z,102527.11
2019-01-02T05:09:46.749Z,102526.17
2019-01-02T05:12:17.993Z,102530.55
2019-01-02T05:14:49.200Z,102533.65
2019-01-02T05:17:20.462Z,102544.50
2019-01-02T05:19:51.682Z,102541.89
2019-01-02T05:22:22.950Z,102541.42
2019-01-02T05:24:54.198Z,102534.02
2019-01-02T05:27:25.372Z,102548.39
2019-01-02T05:29:56.586Z,102551.44
2019-01-02T05:32:27.756Z,102547.91
2019-01-02T05:34:58.989Z,102552.70
2019-01-02T05:37:30.261Z,102536.53
2019-01-02T05:40:01.502Z,102540.81
2019-01-02T05:42:32.730Z,102555.50
2019-01-02T05:45:03.900Z,102553.73
2019-01-02T05:47:35.141Z,102554.56
2019-01-02T05:50:07.052Z,102565.44
2019-01-02T05:52:38.331Z,102561.56
2019-01-02T05:55:09.611Z,102567.61
2019-01-02T05:57:40.881Z,102578.31
2019-01-02T06:00:15.271Z,102576.59
2019-01-02T06:02:46.427Z,102577.41
2019-01-02T06:05:17.669Z,102573.36
2019-01-02T06:07:48.910Z,102580.73
2019-01-02T06:10:20.190Z,102585.11
2019-01-02T06:12:51.327Z,102585.96
2019-01-02T06:15:22.593Z,102594.15
2019-01-02T06:17:53.853Z,102591.63
2019-01-02T06:20:25.093Z,102592.69
2019-01-02T06:22:56.366Z,102590.99
2019-01-02T06:25:27.596Z,102600.17
2019-01-02T06:27:58.816Z,102601.56
2019-01-02T06:30:30.048Z,102601.20
2019-01-02T06:33:01.250Z,102602.17
2019-01-02T06:35:32.402Z,102608.22
2019-01-02T06:38:03.561Z,102614.78
2019-01-02T06:40:34.795Z,102609.96
2019-01-02T06:43:06.043Z,102605.11
2019-01-02T06:45:37.277Z,102602.51
2019-01-02T06:48:08.519Z,102602.48
2019-01-02T06:50:39.750Z,102615.94
2019-01-02T06:53:10.925Z,102616.05
2019-01-02T06:55:42.140Z,102618.25
2019-01-02T06:58:13.396Z,102621.30
2019-01-02T07:00:45.828Z,102619.09
2019-01-02T07:03:17.139Z,102618.70
2019-01-02T07:05:48.352Z,102625.70
2019-01-02T07:08:19.605Z,102631.78
2019-01-02T07:10:50.758Z,102635.70
2019-01-02T07:13:21.979Z,102640.98
2019-01-02T07:15:53.245Z,102644.42
2019-01-02T07:18:24.490Z,102641.40
2019-01-02T07:20:55.739Z,102641.75
2019-01-02T07:23:26.953Z,102648.27
2019-01-02T07:25:58.130Z,102644.20
2019-01-02T07:28:29.378Z,102651.09
2019-01-02T07:31:00.634Z,102662.73
2019-01-02T07:33:44.712Z,102666.06
2019-01-02T07:37:08.051Z,102663.83
2019-01-02T07:40:47.766Z,102667.68
2019-01-02T07:44:14.594Z,102674.95
2019-01-02T07:47:43.065Z,102673.34
2019-01-02T07:51:08.772Z,102687.87
2019-01-02T07:54:34.825Z,102694.57
2019-01-02T07:57:50.860Z,102696.44
2019-01-02T08:00:58.830Z,102695.53
2019-01-02T08:04:25.691Z,102699.42
2019-01-02T08:08:01.211Z,102697.59
2019-01-02T08:11:19.604Z,102709.34
2019-01-02T08:14:37.496Z,102710.50
2019-01-02T08:17:41.229Z,102713.27
2019-01-02T08:21:04.387Z,102716.80
2019-01-02T08:24:34.846Z,102723.38
2019-01-02T08:28:07.556Z,102706.34
2019-01-02T08:31:12.793Z,102710.76
2019-01-02T08:34:37.597Z,102726.48
2019-01-02T08:38:05.615Z,102731.39
2019-01-02T08:41:35.860Z,102739.29
2019-01-02T08:45:25.539Z,102736.70
2019-01-02T08:48:59.016Z,102726.61
2019-01-02T08:52:21.141Z,102738.83
2019-01-02T08:55:54.302Z,102739.70
2019-01-02T08:59:09.718Z,102737.57
2019-01-02T09:02:24.288Z,102742.75
2019-01-02T09:06:13.911Z,102750.48
2019-01-02T09:09:52.927Z,102754.73
2019-01-02T09:13:21.785Z,102764.72
2019-01-02T09:17:00.650Z,102763.16
2019-01-02T09:20:41.986Z,102770.72
2019-01-02T09:24:14.816Z,102768.99
2019-01-02T09:28:01.368Z,102765.72
2019-01-02T09:31:20.230Z,102773.16
2019-01-02T09:34:50.917Z,102787.61
2019-01-02T09:38:19.115Z,102789.43
2019-01-02T09:41:45.808Z,102791.34
2019-01-02T09:45:27.616Z,102793.16
2019-01-02T09:48:47.924Z,102789.33
2019-01-02T09:52:22.336Z,102796.78
2019-01-02T09:55:55.568Z,102801.17
2019-01-02T09:59:31.463Z,102808.22
2019-01-02T10:02:55.668Z,102812.13
2019-01-02T10:06:11.473Z,102809.91
2019-01-02T10:09:54.510Z,102816.44
2019-01-02T10:13:12.696Z,102807.20
2019-01-02T10:16:45.899Z,102823.67
2019-01-02T10:20:01.073Z,102820.23
2019-01-02T10:23:20.767Z,102810.97
2019-01-02T10:26:34.873Z,102816.69
2019-01-02T10:29:48.907Z,102817.55
2019-01-02T10:32:51.034Z,102814.81
2019-01-02T10:36:03.465Z,102823.55
2019-01-02T10:39:43.429Z,102820.95
2019-01-02T10:43:07.339Z,102815.73
2019-01-02T10:46:32.594Z,102815.41
2019-01-02T10:50:01.823Z,102820.22
2019-01-02T10:53:38.337Z,102822.05
2019-01-02T10:57:22.028Z,102822.06
2019-01-02T11:00:54.932Z,102824.30
2019-01-02T11:04:28.142Z,102820.03
2019-01-02T11:08:00.625Z,102831.06
2019-01-02T11:11:32.039Z,102838.94
2019-01-02T11:15:01.219Z,102831.97
2019-01-02T11:18:44.114Z,102826.04
2019-01-02T11:22:01.994Z,102820.00
2019-01-02T11:25:23.547Z,102827.39
2019-01-02T11:29:05.990Z,102826.75
2019-01-02T11:33:02.192Z,102828.34
2019-01-02T11:36:12.495Z,102830.97
2019-01-02T11:39:34.793Z,102829.33
2019-01-02T11:43:11.630Z,102834.20
2019-01-02T11:45:43.065Z,102824.19
2019-01-02T11:48:19.117Z,102822.91
2019-01-02T11:50:50.528Z,102823.81
2019-01-02T11:53:23.877Z,102830.50
2019-01-02T11:55:58.786Z,102831.45
2019-01-02T11:58:30.899Z,102830.88
2019-01-02T12:01:09.666Z,102816.01
2019-01-02T12:03:47.268Z,102823.45
2019-01-02T12:06:18.998Z,102820.97
2019-01-02T12:08:55.462Z,102828.92
2019-01-02T12:11:31.871Z,102820.22
2019-01-02T12:14:10.442Z,102816.27
2019-01-02T12:16:43.862Z,102821.52
2019-01-02T12:19:15.246Z,102827.33
2019-01-02T12:21:46.628Z,102828.24
2019-01-02T12:24:17.917Z,102833.05
2019-01-02T12:26:49.171Z,102816.41
2019-01-02T12:29:20.387Z,102839.09
2019-01-02T12:31:51.660Z,102832.06
2019-01-02T12:34:22.953Z,102833.33
2019-01-02T12:36:54.265Z,102828.09
2019-01-02T12:39:26.169Z,102831.17
2019-01-02T12:41:57.337Z,102828.95
2019-01-02T12:44:28.596Z,102824.55
2019-01-02T12:46:59.863Z,102834.60
2019-01-02T12:49:31.162Z,102822.42
2019-01-02T12:52:02.897Z,102832.05
2019-01-02T12:54:34.147Z,102830.27
2019-01-02T12:57:05.432Z,102839.34
2019-01-02T12:59:36.671Z,102833.66
2019-01-02T13:03:18.085Z,102840.61
2019-01-02T13:07:03.345Z,102839.73
2019-01-02T13:10:34.018Z,102850.19
2019-01-02T13:14:08.223Z,102861.87
2019-01-02T13:17:48.157Z,102850.02
2019-01-02T13:21:13.381Z,102844.72
2019-01-02T13:24:55.690Z,102857.37
2019-01-02T13:28:31.746Z,102860.83
2019-01-02T13:32:08.413Z,102866.42
2019-01-02T13:35:45.897Z,102867.64
2019-01-02T13:38:50.378Z,102875.34
2019-01-02T13:41:54.949Z,102871.38
2019-01-02T13:45:12.152Z,102876.07
2019-01-02T13:48:55.234Z,102877.41
2019-01-02T13:51:35.383Z,102888.02
2019-01-02T13:54:06.901Z,102886.83
2019-01-02T13:56:39.782Z,102884.23
2019-01-02T13:59:13.554Z,102894.76
2019-01-02T14:01:44.725Z,102894.83
2019-01-02T14:04:15.958Z,102894.85
2019-01-02T14:06:47.151Z,102897.05
2019-01-02T14:09:18.409Z,102901.36
2019-01-02T14:11:49.665Z,102896.50
2019-01-02T14:14:20.925Z,102900.51
2019-01-02T14:16:52.144Z,102902.27
2019-01-02T14:19:23.436Z,102906.23
2019-01-02T14:21:54.697Z,102912.73
2019-01-02T14:24:25.995Z,102911.84
2019-01-02T14:26:57.210Z,102906.52
2019-01-02T14:29:28.475Z,102913.02
2019-01-02T14:31:59.682Z,102910.87
2019-01-02T14:34:30.934Z,102919.60
2019-01-02T14:37:02.178Z,102920.02
2019-01-02T14:39:33.499Z,102927.74
2019-01-02T14:42:04.921Z,102932.00
2019-01-02T14:44:36.203Z,102929.76
2019-01-02T14:47:07.677Z,102927.46
2019-01-02T14:49:38.934Z,102928.28
2019-01-02T14:52:10.107Z,102933.08
2019-01-02T14:54:41.375Z,102923.42
2019-01-02T14:57:12.631Z,102921.17
2019-01-02T14:59:43.808Z,102931.48
2019-01-02T15:02:15.067Z,102930.55
2019-01-02T15:04:46.356Z,102933.34
2019-01-02T15:07:17.647Z,102936.79
2019-01-02T15:09:48.804Z,102936.75
2019-01-02T15:12:20.087Z,102937.23
2019-01-02T15:14:51.315Z,102942.39
2019-01-02T15:17:22.563Z,102939.73
2019-01-02T15:19:53.812Z,102937.95
2019-01-02T15:22:25.053Z,102943.84
2019-01-02T15:24:56.511Z,102947.64
2019-01-02T15:27:27.682Z,102947.25
2019-01-02T15:29:59.015Z,102950.30
2019-01-02T15:32:30.281Z,102960.25
2019-01-02T15:35:01.514Z,102960.32
2019-01-02T15:37:32.716Z,102962.54
2019-01-02T15:40:04.036Z,102956.44
2019-01-02T15:42:35.286Z,102960.28
2019-01-02T15:45:07.755Z,102964.17
2019-01-02T15:47:38.980Z,102974.94
2019-01-02T15:50:12.149Z,102973.20
2019-01-02T15:52:43.384Z,102979.05
2019-01-02T15:55:14.713Z,102986.71
2019-01-02T15:57:45.911Z,102990.94
2019-01-02T16:00:17.631Z,102988.70
2019-01-02T16:02:48.874Z,102986.41
2019-01-02T16:05:20.254Z,102995.31
2019-01-02T16:07:51.525Z,102993.14
2019-01-02T16:10:22.738Z,102997.38
2019-01-02T16:12:53.979Z,103005.56
2019-01-02T16:15:25.699Z,103005.91
2019-01-02T16:17:56.948Z,103006.82
2019-01-02T16:20:28.111Z,103009.39
2019-01-02T16:22:59.439Z,103012.92
2019-01-02T16:25:30.580Z,103021.59
2019-01-02T16:28:01.873Z,103012.77
2019-01-02T16:30:33.109Z,103019.75
2019-01-02T16:33:04.367Z,103014.33
2019-01-02T16:35:35.613Z,103023.13
2019-01-02T16:38:06.941Z,103021.27
2019-01-02T16:40:38.182Z,103023.67
2019-01-02T16:43:09.454Z,103021.67
2019-01-02T16:45:40.675Z,103028.07
2019-01-02T16:48:11.950Z,103026.24
2019-01-02T16:50:43.247Z,103030.14
2019-01-02T16:53:17.145Z,103031.91
2019-01-02T16:55:48.578Z,103028.95
2019-01-02T16:58:19.802Z,103034.98
2019-01-02T17:00:51.176Z,103027.47
2019-01-02T17:03:22.494Z,103030.69
2019-01-02T17:05:54.058Z,103030.89
2019-01-02T17:08:25.340Z,103027.20
2019-01-02T17:10:56.804Z,103029.05
2019-01-02T17:13:34.862Z,103029.61
2019-01-02T17:16:06.133Z,103044.66
2019-01-02T17:18:37.372Z,103042.31
2019-01-02T17:21:08.537Z,103046.11
2019-01-02T17:23:39.800Z,103048.39
2019-01-02T17:26:11.065Z,103047.08
2019-01-02T17:28:46.341Z,103046.06
2019-01-02T17:31:17.517Z,103050.48
2019-01-02T17:33:48.832Z,103045.75
2019-01-02T17:36:20.035Z,103056.45
2019-01-02T17:38:51.251Z,103054.19
2019-01-02T17:41:24.447Z,103059.53
2019-01-02T17:44:13.437Z,103052.55
2019-01-02T17:46:47.679Z,103050.45
2019-01-02T17:49:18.974Z,103052.05
2019-01-02T17:51:50.245Z,103064.54
2019-01-02T17:54:21.454Z,103066.66
2019-01-02T17:56:52.841Z,103067.88
2019-01-02T17:59:24.045Z,103069.69
2019-01-02T18:01:55.364Z,103068.22
2019-01-02T18:04:26.770Z,103074.38
2019-01-02T18:06:58.059Z,103077.33
2019-01-02T18:09:29.344Z,103073.80
2019-01-02T18:12:00.482Z,103077.63
2019-01-02T18:14:31.755Z,103076.28
2019-01-02T18:17:02.996Z,103081.89
2019-01-02T18:19:34.247Z,103082.78
2019-01-02T18:22:05.608Z,103084.71
2019-01-02T18:24:36.827Z,103085.72
2019-01-02T18:27:07.976Z,103084.98
2019-01-02T18:29:39.946Z,103088.78
2019-01-02T18:32:11.219Z,103079.11
2019-01-02T18:34:42.525Z,103093.34
2019-01-02T18:37:13.794Z,103088.83
2019-01-02T18:39:45.188Z,103083.99
2019-01-02T18:42:16.455Z,103089.62
2019-01-02T18:44:47.719Z,103094.17
2019-01-02T18:47:19.031Z,103091.84
2019-01-02T18:49:50.288Z,103099.02
2019-01-02T18:52:21.652Z,103097.81
2019-01-02T18:54:53.029Z,103103.66
2019-01-02T18:57:24.313Z,103103.09
2019-01-02T18:59:55.578Z,103105.35
2019-01-02T19:02:26.901Z,103101.08
2019-01-02T19:04:58.291Z,103102.10
2019-01-02T19:07:29.593Z,103098.69
2019-01-02T19:10:00.921Z,103109.61
2019-01-02T19:12:32.375Z,103113.66
2019-01-02T19:15:03.700Z,103116.82
2019-01-02T19:17:34.988Z,103119.38
2019-01-02T19:20:07.356Z,103122.80
2019-01-02T19:22:38.609Z,103121.80
2019-01-02T19:25:10.073Z,103116.89
2019-01-02T19:27:41.415Z,103114.62
2019-01-02T19:30:12.800Z,103120.31
2019-01-02T19:32:44.106Z,103118.83
2019-01-02T19:35:15.522Z,103120.69
2019-01-02T19:37:47.093Z,103128.61
2019-01-02T19:40:21.474Z,103122.88
2019-01-02T19:42:52.874Z,103126.67
2019-01-02T19:45:24.220Z,103134.03
2019-01-02T19:47:55.556Z,103128.31
2019-01-02T19:50:26.871Z,103126.48
2019-01-02T19:52:58.141Z,103136.30
2019-01-02T19:55:29.417Z,103134.20
2019-01-02T19:58:00.729Z,103118.13
2019-01-02T20:00:32.107Z,103121.02
2019-01-02T20:03:03.373Z,103119.81
2019-01-02T20:05:34.753Z,103123.08
2019-01-02T20:08:06.036Z,103117.94
2019-01-02T20:10:37.271Z,103117.70
2019-01-02T20:13:08.543Z,103119.13
2019-01-02T20:15:40.103Z,103111.37
2019-01-02T20:18:11.332Z,103117.22
2019-01-02T20:20:42.602Z,103116.75
2019-01-02T20:23:13.793Z,103118.49
2019-01-02T20:25:45.008Z,103115.07
2019-01-02T20:28:16.251Z,103115.24
2019-01-02T20:30:47.478Z,103116.83
2019-01-02T20:33:18.792Z,103110.83
2019-01-02T20:35:50.088Z,103107.80
2019-01-02T20:38:21.386Z,103104.09
2019-01-02T20:40:52.693Z,103107.80
2019-01-02T20:43:23.967Z,103113.37
2019-01-02T20:45:55.195Z,103108.93
2019-01-02T20:48:26.462Z,103112.22
2019-01-02T20:50:57.753Z,103101.08
2019-01-02T20:53:29.027Z,103109.73
2019-01-02T20:56:00.357Z,103107.25
2019-01-02T20:58:31.625Z,103109.46
2019-01-02T21:01:02.953Z,103108.56
2019-01-02T21:03:34.236Z,103101.15
2019-01-02T21:06:05.454Z,103104.37
2019-01-02T21:08:36.747Z,103095.15
2019-01-02T21:11:08.050Z,103088.04
2019-01-02T21:13:39.348Z,103090.64
2019-01-02T21:16:10.701Z,103091.02
2019-01-02T21:18:42.061Z,103091.00
2019-01-02T21:21:13.510Z,103094.18
2019-01-02T21:23:44.791Z,103089.45
2019-01-02T21:26:16.139Z,103079.59
2019-01-02T21:28:47.336Z,103086.73
2019-01-02T21:31:18.554Z,103084.05
2019-01-02T21:33:49.846Z,103080.05
2019-01-02T21:36:21.092Z,103075.70
2019-01-02T21:38:52.444Z,103075.69
2019-01-02T21:41:23.742Z,103074.87
2019-01-02T21:43:55.182Z,103080.60
2019-01-02T21:46:26.549Z,103081.53
2019-01-02T21:48:57.913Z,103086.69
2019-01-02T21:51:29.406Z,103084.73
2019-01-02T21:54:00.841Z,103089.47
2019-01-02T21:56:32.139Z,103087.41
2019-01-02T21:59:03.524Z,103083.28
2019-01-02T22:01:34.844Z,103084.77
2019-01-02T22:04:06.207Z,103085.88
2019-01-02T22:06:37.515Z,103084.07
2019-01-02T22:09:10.332Z,103087.84
2019-01-02T22:11:43.432Z,103090.27
2019-01-02T22:14:14.775Z,103094.09
2019-01-02T22:16:46.064Z,103097.09
2019-01-02T22:19:17.419Z,103084.40
2019-01-02T22:21:49.279Z,103079.20
2019-01-02T22:24:20.577Z,103079.95
2019-01-02T22:26:51.915Z,103082.62
2019-01-02T22:29:23.361Z,103079.94
2019-01-02T22:31:54.687Z,103077.07
2019-01-02T22:34:25.951Z,103080.49
2019-01-02T22:36:57.228Z,103079.38
2019-01-02T22:39:28.515Z,103076.01
2019-01-02T22:41:59.862Z,103078.63
2019-01-02T22:44:31.254Z,103081.31
2019-01-02T22:47:03.436Z,103078.58
2019-01-02T22:49:34.888Z,103079.00
2019-01-02T22:52:06.147Z,103081.34
2019-01-02T22:54:37.469Z,103079.31
2019-01-02T22:57:08.796Z,103082.70
2019-01-02T22:59:40.166Z,103077.02
2019-01-02T23:02:21.943Z,103076.13
2019-01-02T23:05:12.079Z,103077.02
2019-01-02T23:08:01.939Z,103072.14
2019-01-02T23:11:00.975Z,103073.58
2019-01-02T23:13:49.876Z,103078.51
2019-01-02T23:16:38.858Z,103076.23
2019-01-02T23:19:33.725Z,103079.66
2019-01-02T23:22:35.350Z,103067.56
2019-01-02T23:25:24.136Z,103071.11
2019-01-02T23:28:11.393Z,103078.20
2019-01-02T23:30:55.874Z,103082.71
2019-01-02T23:33:44.737Z,103086.09
2019-01-02T23:36:50.723Z,103082.50
2019-01-02T23:39:33.095Z,103083.63
2019-01-02T23:42:21.963Z,103082.48
2019-01-02T23:45:21.009Z,103078.20
2019-01-02T23:48:23.006Z,103079.12
2019-01-02T23:51:28.385Z,103090.09
2019-01-02T23:54:24.741Z,103084.63
2019-01-02T23:57:13.650Z,103086.44
